sensor_id;sensor_type;location;lat;lon;timestamp;P1;durP1;ratioP1;P2;durP2;ratioP2
73132;SDS011;61320;52.008;4.530;2023-01-08T00:00:49;3.39;;;2.48;;
73132;SDS011;61320;52.008;4.530;2023-01-08T00:03:15;3.46;;;2.67;;
73132;SDS011;61320;52.008;4.530;2023-01-08T00:05:41;3.06;;;2.53;;
73132;SDS011;61320;52.008;4.530;2023-01-08T00:08:07;3.11;;;2.62;;
73132;SDS011;61320;52.008;4.530;2023-01-08T00:10:37;3.11;;;2.67;;
73132;SDS011;61320;52.008;4.530;2023-01-08T00:13:03;3.36;;;2.91;;
73132;SDS011;61320;52.008;4.530;2023-01-08T00:15:30;2.96;;;2.65;;
73132;SDS011;61320;52.008;4.530;2023-01-08T00:17:57;2.75;;;2.47;;
73132;SDS011;61320;52.008;4.530;2023-01-08T00:20:22;3.24;;;2.95;;
73132;SDS011;61320;52.008;4.530;2023-01-08T00:22:48;3.21;;;2.98;;
73132;SDS011;61320;52.008;4.530;2023-01-08T00:25:14;3.23;;;3.04;;
73132;SDS011;61320;52.008;4.530;2023-01-08T00:27:40;3.41;;;3.18;;
73132;SDS011;61320;52.008;4.530;2023-01-08T00:30:06;3.34;;;3.16;;
73132;SDS011;61320;52.008;4.530;2023-01-08T00:32:32;3.31;;;3.15;;
73132;SDS011;61320;52.008;4.530;2023-01-08T00:34:57;3.60;;;3.37;;
73132;SDS011;61320;52.008;4.530;2023-01-08T00:37:23;3.53;;;3.37;;
73132;SDS011;61320;52.008;4.530;2023-01-08T00:39:48;3.45;;;3.32;;
73132;SDS011;61320;52.008;4.530;2023-01-08T00:42:13;3.34;;;3.16;;
73132;SDS011;61320;52.008;4.530;2023-01-08T00:44:39;3.73;;;3.46;;
73132;SDS011;61320;52.008;4.530;2023-01-08T00:47:04;3.26;;;3.08;;
73132;SDS011;61320;52.008;4.530;2023-01-08T00:49:30;3.56;;;3.38;;
73132;SDS011;61320;52.008;4.530;2023-01-08T00:51:55;3.33;;;3.14;;
73132;SDS011;61320;52.008;4.530;2023-01-08T00:54:21;3.65;;;3.42;;
73132;SDS011;61320;52.008;4.530;2023-01-08T00:56:46;4.00;;;3.72;;
73132;SDS011;61320;52.008;4.530;2023-01-08T00:59:12;3.70;;;3.51;;
73132;SDS011;61320;52.008;4.530;2023-01-08T01:01:37;3.87;;;3.60;;
73132;SDS011;61320;52.008;4.530;2023-01-08T01:04:03;3.97;;;3.65;;
73132;SDS011;61320;52.008;4.530;2023-01-08T01:06:29;3.92;;;3.63;;
73132;SDS011;61320;52.008;4.530;2023-01-08T01:08:54;4.00;;;3.71;;
73132;SDS011;61320;52.008;4.530;2023-01-08T01:11:24;4.10;;;3.81;;
73132;SDS011;61320;52.008;4.530;2023-01-08T01:13:53;4.62;;;4.24;;
73132;SDS011;61320;52.008;4.530;2023-01-08T01:16:20;4.24;;;3.99;;
73132;SDS011;61320;52.008;4.530;2023-01-08T01:18:47;4.25;;;4.11;;
73132;SDS011;61320;52.008;4.530;2023-01-08T01:21:31;4.05;;;3.95;;
73132;SDS011;61320;52.008;4.530;2023-01-08T01:24:01;4.06;;;3.92;;
73132;SDS011;61320;52.008;4.530;2023-01-08T01:26:29;3.84;;;3.72;;
73132;SDS011;61320;52.008;4.530;2023-01-08T01:28:55;3.55;;;3.47;;
73132;SDS011;61320;52.008;4.530;2023-01-08T01:31:22;3.51;;;3.40;;
73132;SDS011;61320;52.008;4.530;2023-01-08T01:33:50;3.31;;;3.19;;
73132;SDS011;61320;52.008;4.530;2023-01-08T01:36:16;3.08;;;2.97;;
73132;SDS011;61320;52.008;4.530;2023-01-08T01:38:44;2.99;;;2.84;;
73132;SDS011;61320;52.008;4.530;2023-01-08T01:41:18;2.70;;;2.56;;
73132;SDS011;61320;52.008;4.530;2023-01-08T01:44:32;2.74;;;2.56;;
73132;SDS011;61320;52.008;4.530;2023-01-08T01:49:51;2.48;;;2.28;;
73132;SDS011;61320;52.008;4.530;2023-01-08T01:52:41;2.38;;;2.17;;
73132;SDS011;61320;52.008;4.530;2023-01-08T01:55:10;2.51;;;2.25;;
73132;SDS011;61320;52.008;4.530;2023-01-08T01:57:37;2.64;;;2.35;;
73132;SDS011;61320;52.008;4.530;2023-01-08T02:00:07;2.77;;;2.43;;
73132;SDS011;61320;52.008;4.530;2023-01-08T02:02:33;2.67;;;2.34;;
73132;SDS011;61320;52.008;4.530;2023-01-08T02:04:59;2.38;;;2.15;;
73132;SDS011;61320;52.008;4.530;2023-01-08T02:10:15;2.62;;;2.36;;
73132;SDS011;61320;52.008;4.530;2023-01-08T02:12:49;2.69;;;2.39;;
73132;SDS011;61320;52.008;4.530;2023-01-08T02:18:27;2.91;;;2.66;;
73132;SDS011;61320;52.008;4.530;2023-01-08T02:21:30;2.89;;;2.57;;
73132;SDS011;61320;52.008;4.530;2023-01-08T02:24:12;2.91;;;2.56;;
73132;SDS011;61320;52.008;4.530;2023-01-08T02:26:43;2.96;;;2.59;;
73132;SDS011;61320;52.008;4.530;2023-01-08T02:29:14;3.31;;;2.88;;
73132;SDS011;61320;52.008;4.530;2023-01-08T02:31:44;3.27;;;2.80;;
73132;SDS011;61320;52.008;4.530;2023-01-08T02:34:10;3.18;;;2.71;;
73132;SDS011;61320;52.008;4.530;2023-01-08T02:39:12;3.17;;;2.62;;
73132;SDS011;61320;52.008;4.530;2023-01-08T02:44:27;2.88;;;2.42;;
73132;SDS011;61320;52.008;4.530;2023-01-08T02:46:58;2.93;;;2.43;;
73132;SDS011;61320;52.008;4.530;2023-01-08T02:49:28;2.89;;;2.39;;
73132;SDS011;61320;52.008;4.530;2023-01-08T02:51:59;2.56;;;2.10;;
73132;SDS011;61320;52.008;4.530;2023-01-08T02:54:31;3.34;;;2.62;;
73132;SDS011;61320;52.008;4.530;2023-01-08T02:57:02;3.49;;;2.68;;
73132;SDS011;61320;52.008;4.530;2023-01-08T02:59:34;3.50;;;2.71;;
73132;SDS011;61320;52.008;4.530;2023-01-08T03:02:03;3.50;;;2.68;;
73132;SDS011;61320;52.008;4.530;2023-01-08T03:04:32;3.43;;;2.60;;
73132;SDS011;61320;52.008;4.530;2023-01-08T03:07:03;3.41;;;2.60;;
73132;SDS011;61320;52.008;4.530;2023-01-08T03:09:29;3.19;;;2.44;;
73132;SDS011;61320;52.008;4.530;2023-01-08T03:11:59;3.41;;;2.61;;
73132;SDS011;61320;52.008;4.530;2023-01-08T03:17:19;3.36;;;2.48;;
73132;SDS011;61320;52.008;4.530;2023-01-08T03:19:52;3.74;;;2.72;;
73132;SDS011;61320;52.008;4.530;2023-01-08T03:22:22;3.88;;;2.74;;
73132;SDS011;61320;52.008;4.530;2023-01-08T03:24:49;4.45;;;3.05;;
73132;SDS011;61320;52.008;4.530;2023-01-08T03:27:23;4.26;;;2.94;;
73132;SDS011;61320;52.008;4.530;2023-01-08T03:29:55;4.35;;;2.93;;
73132;SDS011;61320;52.008;4.530;2023-01-08T03:32:23;4.14;;;2.80;;
73132;SDS011;61320;52.008;4.530;2023-01-08T03:34:53;3.84;;;2.63;;
73132;SDS011;61320;52.008;4.530;2023-01-08T03:37:24;4.19;;;2.88;;
73132;SDS011;61320;52.008;4.530;2023-01-08T03:42:38;5.22;;;3.45;;
73132;SDS011;61320;52.008;4.530;2023-01-08T03:45:04;5.18;;;3.41;;
73132;SDS011;61320;52.008;4.530;2023-01-08T03:47:30;4.97;;;3.25;;
73132;SDS011;61320;52.008;4.530;2023-01-08T03:50:00;5.04;;;3.31;;
73132;SDS011;61320;52.008;4.530;2023-01-08T03:52:30;5.85;;;3.81;;
73132;SDS011;61320;52.008;4.530;2023-01-08T03:54:57;5.55;;;3.64;;
73132;SDS011;61320;52.008;4.530;2023-01-08T03:57:22;5.58;;;3.65;;
73132;SDS011;61320;52.008;4.530;2023-01-08T03:59:48;5.72;;;3.69;;
73132;SDS011;61320;52.008;4.530;2023-01-08T04:02:14;5.32;;;3.38;;
73132;SDS011;61320;52.008;4.530;2023-01-08T04:04:40;5.75;;;3.65;;
73132;SDS011;61320;52.008;4.530;2023-01-08T04:07:06;5.03;;;3.27;;
73132;SDS011;61320;52.008;4.530;2023-01-08T04:09:32;4.98;;;3.26;;
73132;SDS011;61320;52.008;4.530;2023-01-08T04:11:57;5.59;;;3.66;;
73132;SDS011;61320;52.008;4.530;2023-01-08T04:14:23;4.94;;;3.21;;
73132;SDS011;61320;52.008;4.530;2023-01-08T04:16:48;4.27;;;2.84;;
73132;SDS011;61320;52.008;4.530;2023-01-08T04:19:13;4.51;;;3.05;;
73132;SDS011;61320;52.008;4.530;2023-01-08T04:21:39;4.93;;;3.32;;
73132;SDS011;61320;52.008;4.530;2023-01-08T04:24:05;4.85;;;3.23;;
73132;SDS011;61320;52.008;4.530;2023-01-08T04:26:31;4.44;;;2.95;;
73132;SDS011;61320;52.008;4.530;2023-01-08T04:28:57;4.89;;;3.28;;
73132;SDS011;61320;52.008;4.530;2023-01-08T04:31:22;4.87;;;3.26;;
73132;SDS011;61320;52.008;4.530;2023-01-08T04:33:48;4.59;;;3.02;;
73132;SDS011;61320;52.008;4.530;2023-01-08T04:36:13;4.89;;;3.25;;
73132;SDS011;61320;52.008;4.530;2023-01-08T04:38:39;4.62;;;3.10;;
73132;SDS011;61320;52.008;4.530;2023-01-08T04:41:05;4.60;;;3.15;;
73132;SDS011;61320;52.008;4.530;2023-01-08T04:43:31;4.59;;;3.24;;
73132;SDS011;61320;52.008;4.530;2023-01-08T04:45:57;4.39;;;3.20;;
73132;SDS011;61320;52.008;4.530;2023-01-08T04:48:23;3.92;;;2.97;;
73132;SDS011;61320;52.008;4.530;2023-01-08T04:50:48;4.16;;;3.23;;
73132;SDS011;61320;52.008;4.530;2023-01-08T04:53:15;3.62;;;2.94;;
73132;SDS011;61320;52.008;4.530;2023-01-08T04:55:40;3.77;;;3.09;;
73132;SDS011;61320;52.008;4.530;2023-01-08T04:58:06;3.38;;;2.82;;
73132;SDS011;61320;52.008;4.530;2023-01-08T05:00:32;3.28;;;2.78;;
73132;SDS011;61320;52.008;4.530;2023-01-08T05:02:57;3.61;;;3.05;;
73132;SDS011;61320;52.008;4.530;2023-01-08T05:05:23;3.25;;;2.72;;
73132;SDS011;61320;52.008;4.530;2023-01-08T05:07:48;3.67;;;3.09;;
73132;SDS011;61320;52.008;4.530;2023-01-08T05:10:14;3.18;;;2.76;;
73132;SDS011;61320;52.008;4.530;2023-01-08T05:12:39;3.39;;;2.88;;
73132;SDS011;61320;52.008;4.530;2023-01-08T05:15:05;3.62;;;3.00;;
73132;SDS011;61320;52.008;4.530;2023-01-08T05:17:31;3.64;;;3.01;;
73132;SDS011;61320;52.008;4.530;2023-01-08T05:19:56;3.86;;;3.13;;
73132;SDS011;61320;52.008;4.530;2023-01-08T05:22:22;3.90;;;3.17;;
73132;SDS011;61320;52.008;4.530;2023-01-08T05:24:47;3.72;;;3.02;;
73132;SDS011;61320;52.008;4.530;2023-01-08T05:27:13;3.87;;;3.12;;
73132;SDS011;61320;52.008;4.530;2023-01-08T05:29:38;4.08;;;3.17;;
73132;SDS011;61320;52.008;4.530;2023-01-08T05:32:05;4.40;;;3.41;;
73132;SDS011;61320;52.008;4.530;2023-01-08T05:34:37;4.50;;;3.58;;
73132;SDS011;61320;52.008;4.530;2023-01-08T05:37:02;4.14;;;3.33;;
73132;SDS011;61320;52.008;4.530;2023-01-08T05:39:28;4.24;;;3.42;;
73132;SDS011;61320;52.008;4.530;2023-01-08T05:41:53;4.06;;;3.25;;
73132;SDS011;61320;52.008;4.530;2023-01-08T05:44:19;4.37;;;3.49;;
73132;SDS011;61320;52.008;4.530;2023-01-08T05:46:44;4.31;;;3.41;;
73132;SDS011;61320;52.008;4.530;2023-01-08T05:49:09;4.55;;;3.52;;
73132;SDS011;61320;52.008;4.530;2023-01-08T05:51:35;4.43;;;3.37;;
73132;SDS011;61320;52.008;4.530;2023-01-08T05:54:00;4.98;;;3.71;;
73132;SDS011;61320;52.008;4.530;2023-01-08T05:56:26;5.39;;;4.01;;
73132;SDS011;61320;52.008;4.530;2023-01-08T05:58:54;4.90;;;3.64;;
73132;SDS011;61320;52.008;4.530;2023-01-08T06:01:20;4.54;;;3.47;;
73132;SDS011;61320;52.008;4.530;2023-01-08T06:03:46;5.08;;;3.89;;
73132;SDS011;61320;52.008;4.530;2023-01-08T06:06:11;4.93;;;3.79;;
73132;SDS011;61320;52.008;4.530;2023-01-08T06:08:37;4.72;;;3.62;;
73132;SDS011;61320;52.008;4.530;2023-01-08T06:11:05;4.76;;;3.61;;
73132;SDS011;61320;52.008;4.530;2023-01-08T06:13:33;4.52;;;3.54;;
73132;SDS011;61320;52.008;4.530;2023-01-08T06:16:02;4.52;;;3.64;;
73132;SDS011;61320;52.008;4.530;2023-01-08T06:18:28;4.20;;;3.40;;
73132;SDS011;61320;52.008;4.530;2023-01-08T06:20:54;4.92;;;3.90;;
73132;SDS011;61320;52.008;4.530;2023-01-08T06:23:20;3.91;;;3.23;;
73132;SDS011;61320;52.008;4.530;2023-01-08T06:25:50;4.73;;;3.91;;
73132;SDS011;61320;52.008;4.530;2023-01-08T06:28:20;4.26;;;3.49;;
73132;SDS011;61320;52.008;4.530;2023-01-08T06:30:46;4.23;;;3.46;;
73132;SDS011;61320;52.008;4.530;2023-01-08T06:33:11;4.01;;;3.23;;
73132;SDS011;61320;52.008;4.530;2023-01-08T06:35:37;3.94;;;3.33;;
73132;SDS011;61320;52.008;4.530;2023-01-08T06:38:02;4.27;;;3.59;;
73132;SDS011;61320;52.008;4.530;2023-01-08T06:40:28;4.32;;;3.57;;
73132;SDS011;61320;52.008;4.530;2023-01-08T06:42:53;4.06;;;3.35;;
73132;SDS011;61320;52.008;4.530;2023-01-08T06:45:19;4.23;;;3.42;;
73132;SDS011;61320;52.008;4.530;2023-01-08T06:47:44;3.81;;;3.08;;
73132;SDS011;61320;52.008;4.530;2023-01-08T06:50:10;4.00;;;3.30;;
73132;SDS011;61320;52.008;4.530;2023-01-08T06:52:36;3.82;;;3.13;;
73132;SDS011;61320;52.008;4.530;2023-01-08T06:55:03;4.37;;;3.51;;
73132;SDS011;61320;52.008;4.530;2023-01-08T06:57:30;4.17;;;3.31;;
73132;SDS011;61320;52.008;4.530;2023-01-08T06:59:55;4.53;;;3.55;;
73132;SDS011;61320;52.008;4.530;2023-01-08T07:02:21;4.36;;;3.35;;
73132;SDS011;61320;52.008;4.530;2023-01-08T07:04:46;4.61;;;3.45;;
73132;SDS011;61320;52.008;4.530;2023-01-08T07:07:12;4.80;;;3.48;;
73132;SDS011;61320;52.008;4.530;2023-01-08T07:09:40;5.01;;;3.53;;
73132;SDS011;61320;52.008;4.530;2023-01-08T07:12:09;4.92;;;3.43;;
73132;SDS011;61320;52.008;4.530;2023-01-08T07:14:36;5.54;;;3.82;;
73132;SDS011;61320;52.008;4.530;2023-01-08T07:17:01;5.17;;;3.63;;
73132;SDS011;61320;52.008;4.530;2023-01-08T07:19:27;5.38;;;3.91;;
73132;SDS011;61320;52.008;4.530;2023-01-08T07:21:52;5.62;;;4.13;;
73132;SDS011;61320;52.008;4.530;2023-01-08T07:24:18;5.55;;;4.13;;
73132;SDS011;61320;52.008;4.530;2023-01-08T07:26:43;5.88;;;4.54;;
73132;SDS011;61320;52.008;4.530;2023-01-08T07:29:09;5.12;;;4.06;;
73132;SDS011;61320;52.008;4.530;2023-01-08T07:31:34;5.44;;;4.20;;
73132;SDS011;61320;52.008;4.530;2023-01-08T07:33:59;5.04;;;3.84;;
73132;SDS011;61320;52.008;4.530;2023-01-08T07:36:25;5.03;;;3.75;;
73132;SDS011;61320;52.008;4.530;2023-01-08T07:38:50;5.68;;;4.14;;
73132;SDS011;61320;52.008;4.530;2023-01-08T07:41:16;5.13;;;3.74;;
73132;SDS011;61320;52.008;4.530;2023-01-08T07:43:42;4.63;;;3.39;;
73132;SDS011;61320;52.008;4.530;2023-01-08T07:46:08;5.34;;;3.76;;
73132;SDS011;61320;52.008;4.530;2023-01-08T07:48:33;5.17;;;3.57;;
73132;SDS011;61320;52.008;4.530;2023-01-08T07:51:00;5.99;;;4.26;;
73132;SDS011;61320;52.008;4.530;2023-01-08T07:53:29;4.86;;;3.66;;
73132;SDS011;61320;52.008;4.530;2023-01-08T07:55:58;5.25;;;3.83;;
73132;SDS011;61320;52.008;4.530;2023-01-08T07:58:24;5.75;;;4.16;;
73132;SDS011;61320;52.008;4.530;2023-01-08T08:00:50;6.63;;;4.95;;
73132;SDS011;61320;52.008;4.530;2023-01-08T08:03:15;6.82;;;5.42;;
73132;SDS011;61320;52.008;4.530;2023-01-08T08:05:41;4.94;;;3.96;;
73132;SDS011;61320;52.008;4.530;2023-01-08T08:08:10;4.60;;;3.66;;
73132;SDS011;61320;52.008;4.530;2023-01-08T08:10:37;5.27;;;3.98;;
73132;SDS011;61320;52.008;4.530;2023-01-08T08:13:04;5.20;;;3.73;;
73132;SDS011;61320;52.008;4.530;2023-01-08T08:15:30;5.26;;;3.69;;
73132;SDS011;61320;52.008;4.530;2023-01-08T08:17:56;5.62;;;3.82;;
73132;SDS011;61320;52.008;4.530;2023-01-08T08:20:21;6.29;;;4.24;;
73132;SDS011;61320;52.008;4.530;2023-01-08T08:22:47;6.04;;;4.02;;
73132;SDS011;61320;52.008;4.530;2023-01-08T08:25:12;5.26;;;3.45;;
73132;SDS011;61320;52.008;4.530;2023-01-08T08:27:47;6.18;;;4.05;;
73132;SDS011;61320;52.008;4.530;2023-01-08T08:30:12;5.84;;;3.80;;
73132;SDS011;61320;52.008;4.530;2023-01-08T08:32:38;7.20;;;4.74;;
73132;SDS011;61320;52.008;4.530;2023-01-08T08:35:04;6.02;;;4.00;;
73132;SDS011;61320;52.008;4.530;2023-01-08T08:37:30;6.42;;;4.25;;
73132;SDS011;61320;52.008;4.530;2023-01-08T08:39:55;6.30;;;4.10;;
73132;SDS011;61320;52.008;4.530;2023-01-08T08:42:20;6.62;;;4.27;;
73132;SDS011;61320;52.008;4.530;2023-01-08T08:44:46;7.14;;;4.54;;
73132;SDS011;61320;52.008;4.530;2023-01-08T08:47:11;6.44;;;4.09;;
73132;SDS011;61320;52.008;4.530;2023-01-08T08:49:37;6.74;;;4.34;;
73132;SDS011;61320;52.008;4.530;2023-01-08T08:52:03;6.05;;;4.00;;
73132;SDS011;61320;52.008;4.530;2023-01-08T08:54:29;5.86;;;3.89;;
73132;SDS011;61320;52.008;4.530;2023-01-08T08:56:54;6.24;;;4.22;;
73132;SDS011;61320;52.008;4.530;2023-01-08T08:59:20;6.18;;;4.24;;
73132;SDS011;61320;52.008;4.530;2023-01-08T09:01:45;5.98;;;4.15;;
73132;SDS011;61320;52.008;4.530;2023-01-08T09:04:11;7.06;;;4.95;;
73132;SDS011;61320;52.008;4.530;2023-01-08T09:06:36;7.06;;;5.10;;
73132;SDS011;61320;52.008;4.530;2023-01-08T09:09:02;5.26;;;3.88;;
73132;SDS011;61320;52.008;4.530;2023-01-08T09:11:27;5.89;;;4.22;;
73132;SDS011;61320;52.008;4.530;2023-01-08T09:13:53;5.17;;;3.66;;
73132;SDS011;61320;52.008;4.530;2023-01-08T09:16:18;6.30;;;4.36;;
73132;SDS011;61320;52.008;4.530;2023-01-08T09:18:44;6.26;;;4.29;;
73132;SDS011;61320;52.008;4.530;2023-01-08T09:21:09;6.28;;;4.23;;
73132;SDS011;61320;52.008;4.530;2023-01-08T09:23:35;6.75;;;4.53;;
73132;SDS011;61320;52.008;4.530;2023-01-08T09:26:03;7.38;;;5.14;;
73132;SDS011;61320;52.008;4.530;2023-01-08T09:28:29;5.44;;;3.81;;
73132;SDS011;61320;52.008;4.530;2023-01-08T09:30:59;6.47;;;4.42;;
73132;SDS011;61320;52.008;4.530;2023-01-08T09:33:26;6.22;;;4.22;;
73132;SDS011;61320;52.008;4.530;2023-01-08T09:35:52;5.60;;;3.82;;
73132;SDS011;61320;52.008;4.530;2023-01-08T09:38:17;5.32;;;3.65;;
73132;SDS011;61320;52.008;4.530;2023-01-08T09:40:47;6.19;;;4.16;;
73132;SDS011;61320;52.008;4.530;2023-01-08T09:43:19;6.36;;;4.20;;
73132;SDS011;61320;52.008;4.530;2023-01-08T09:45:57;7.63;;;5.03;;
73132;SDS011;61320;52.008;4.530;2023-01-08T09:48:30;6.22;;;4.17;;
73132;SDS011;61320;52.008;4.530;2023-01-08T09:51:03;6.15;;;4.11;;
73132;SDS011;61320;52.008;4.530;2023-01-08T09:53:31;7.15;;;4.79;;
73132;SDS011;61320;52.008;4.530;2023-01-08T09:56:01;7.60;;;5.32;;
73132;SDS011;61320;52.008;4.530;2023-01-08T09:58:34;6.60;;;4.72;;
73132;SDS011;61320;52.008;4.530;2023-01-08T10:01:03;6.23;;;4.41;;
73132;SDS011;61320;52.008;4.530;2023-01-08T10:03:36;6.16;;;4.25;;
73132;SDS011;61320;52.008;4.530;2023-01-08T10:06:09;6.26;;;4.34;;
73132;SDS011;61320;52.008;4.530;2023-01-08T10:08:37;7.79;;;5.51;;
73132;SDS011;61320;52.008;4.530;2023-01-08T10:11:04;6.11;;;4.55;;
73132;SDS011;61320;52.008;4.530;2023-01-08T10:13:31;5.90;;;4.40;;
73132;SDS011;61320;52.008;4.530;2023-01-08T10:15:59;5.60;;;4.35;;
73132;SDS011;61320;52.008;4.530;2023-01-08T10:18:25;4.96;;;3.73;;
73132;SDS011;61320;52.008;4.530;2023-01-08T10:20:52;6.26;;;4.57;;
73132;SDS011;61320;52.008;4.530;2023-01-08T10:23:19;5.11;;;3.92;;
73132;SDS011;61320;52.008;4.530;2023-01-08T10:25:59;4.67;;;3.68;;
73132;SDS011;61320;52.008;4.530;2023-01-08T10:28:27;4.74;;;3.66;;
73132;SDS011;61320;52.008;4.530;2023-01-08T10:31:05;5.24;;;3.91;;
73132;SDS011;61320;52.008;4.530;2023-01-08T10:36:17;4.90;;;3.61;;
73132;SDS011;61320;52.008;4.530;2023-01-08T10:38:55;4.51;;;3.29;;
73132;SDS011;61320;52.008;4.530;2023-01-08T10:41:24;4.86;;;3.58;;
73132;SDS011;61320;52.008;4.530;2023-01-08T10:43:52;4.97;;;3.72;;
73132;SDS011;61320;52.008;4.530;2023-01-08T10:49:01;5.51;;;4.27;;
73132;SDS011;61320;52.008;4.530;2023-01-08T10:51:30;5.71;;;4.41;;
73132;SDS011;61320;52.008;4.530;2023-01-08T10:54:11;4.82;;;3.66;;
73132;SDS011;61320;52.008;4.530;2023-01-08T10:56:39;5.78;;;4.41;;
73132;SDS011;61320;52.008;4.530;2023-01-08T10:59:20;5.77;;;4.45;;
73132;SDS011;61320;52.008;4.530;2023-01-08T11:01:48;4.84;;;3.81;;
73132;SDS011;61320;52.008;4.530;2023-01-08T11:04:19;4.33;;;3.36;;
73132;SDS011;61320;52.008;4.530;2023-01-08T11:06:56;4.96;;;3.78;;
73132;SDS011;61320;52.008;4.530;2023-01-08T11:09:32;5.63;;;4.28;;
73132;SDS011;61320;52.008;4.530;2023-01-08T11:12:17;3.65;;;2.95;;
73132;SDS011;61320;52.008;4.530;2023-01-08T11:15:05;3.22;;;2.71;;
73132;SDS011;61320;52.008;4.530;2023-01-08T11:17:50;3.55;;;2.96;;
73132;SDS011;61320;52.008;4.530;2023-01-08T11:20:36;3.56;;;2.95;;
73132;SDS011;61320;52.008;4.530;2023-01-08T11:23:16;3.41;;;2.76;;
73132;SDS011;61320;52.008;4.530;2023-01-08T11:25:52;3.55;;;2.88;;
73132;SDS011;61320;52.008;4.530;2023-01-08T11:31:24;3.88;;;3.04;;
73132;SDS011;61320;52.008;4.530;2023-01-08T11:34:11;3.42;;;2.76;;
73132;SDS011;61320;52.008;4.530;2023-01-08T11:37:02;4.67;;;4.06;;
73132;SDS011;61320;52.008;4.530;2023-01-08T11:39:36;4.76;;;4.49;;
73132;SDS011;61320;52.008;4.530;2023-01-08T11:42:07;3.07;;;2.88;;
73132;SDS011;61320;52.008;4.530;2023-01-08T11:53:54;3.35;;;3.03;;
73132;SDS011;61320;52.008;4.530;2023-01-08T11:59:42;3.00;;;2.70;;
73132;SDS011;61320;52.008;4.530;2023-01-08T12:02:38;3.21;;;2.82;;
73132;SDS011;61320;52.008;4.530;2023-01-08T12:19:34;2.90;;;2.58;;
73132;SDS011;61320;52.008;4.530;2023-01-08T12:22:26;2.85;;;2.52;;
73132;SDS011;61320;52.008;4.530;2023-01-08T12:35:57;4.05;;;3.69;;
73132;SDS011;61320;52.008;4.530;2023-01-08T12:38:32;3.21;;;3.00;;
73132;SDS011;61320;52.008;4.530;2023-01-08T12:43:56;2.92;;;2.69;;
73132;SDS011;61320;52.008;4.530;2023-01-08T12:46:33;2.90;;;2.60;;
73132;SDS011;61320;52.008;4.530;2023-01-08T12:49:01;2.77;;;2.52;;
73132;SDS011;61320;52.008;4.530;2023-01-08T12:51:32;2.60;;;2.43;;
73132;SDS011;61320;52.008;4.530;2023-01-08T12:57:10;3.07;;;2.89;;
73132;SDS011;61320;52.008;4.530;2023-01-08T13:05:09;2.80;;;2.55;;
73132;SDS011;61320;52.008;4.530;2023-01-08T13:07:53;2.76;;;2.50;;
73132;SDS011;61320;52.008;4.530;2023-01-08T13:10:48;2.79;;;2.43;;
73132;SDS011;61320;52.008;4.530;2023-01-08T13:18:51;2.76;;;2.26;;
73132;SDS011;61320;52.008;4.530;2023-01-08T13:21:32;3.26;;;2.58;;
73132;SDS011;61320;52.008;4.530;2023-01-08T13:24:03;3.27;;;2.54;;
73132;SDS011;61320;52.008;4.530;2023-01-08T13:26:32;3.16;;;2.44;;
73132;SDS011;61320;52.008;4.530;2023-01-08T13:29:21;3.85;;;2.95;;
73132;SDS011;61320;52.008;4.530;2023-01-08T13:32:01;3.73;;;2.83;;
73132;SDS011;61320;52.008;4.530;2023-01-08T13:34:37;3.45;;;2.53;;
73132;SDS011;61320;52.008;4.530;2023-01-08T13:37:06;4.19;;;3.05;;
73132;SDS011;61320;52.008;4.530;2023-01-08T13:39:36;4.02;;;2.95;;
73132;SDS011;61320;52.008;4.530;2023-01-08T13:44:50;4.22;;;3.39;;
73132;SDS011;61320;52.008;4.530;2023-01-08T13:47:25;3.38;;;2.71;;
73132;SDS011;61320;52.008;4.530;2023-01-08T13:49:58;3.56;;;2.78;;
73132;SDS011;61320;52.008;4.530;2023-01-08T13:52:33;3.63;;;2.76;;
73132;SDS011;61320;52.008;4.530;2023-01-08T13:55:02;4.46;;;3.44;;
73132;SDS011;61320;52.008;4.530;2023-01-08T13:57:38;3.81;;;3.12;;
73132;SDS011;61320;52.008;4.530;2023-01-08T14:00:17;3.39;;;2.69;;
73132;SDS011;61320;52.008;4.530;2023-01-08T14:02:50;4.02;;;3.11;;
73132;SDS011;61320;52.008;4.530;2023-01-08T14:07:44;3.39;;;2.71;;
73132;SDS011;61320;52.008;4.530;2023-01-08T14:10:11;3.29;;;2.67;;
73132;SDS011;61320;52.008;4.530;2023-01-08T14:12:38;3.59;;;2.96;;
73132;SDS011;61320;52.008;4.530;2023-01-08T14:15:06;3.34;;;2.81;;
73132;SDS011;61320;52.008;4.530;2023-01-08T14:17:34;3.64;;;3.17;;
73132;SDS011;61320;52.008;4.530;2023-01-08T14:20:00;3.61;;;3.19;;
73132;SDS011;61320;52.008;4.530;2023-01-08T14:22:30;3.62;;;3.24;;
73132;SDS011;61320;52.008;4.530;2023-01-08T14:25:00;3.77;;;3.44;;
73132;SDS011;61320;52.008;4.530;2023-01-08T14:27:30;3.32;;;3.07;;
73132;SDS011;61320;52.008;4.530;2023-01-08T14:29:56;3.33;;;3.07;;
73132;SDS011;61320;52.008;4.530;2023-01-08T14:32:23;3.30;;;2.97;;
73132;SDS011;61320;52.008;4.530;2023-01-08T14:34:52;3.32;;;3.07;;
73132;SDS011;61320;52.008;4.530;2023-01-08T14:37:20;3.22;;;2.98;;
73132;SDS011;61320;52.008;4.530;2023-01-08T14:39:46;3.07;;;2.79;;
73132;SDS011;61320;52.008;4.530;2023-01-08T14:47:47;3.43;;;3.12;;
73132;SDS011;61320;52.008;4.530;2023-01-08T14:52:51;2.64;;;2.38;;
73132;SDS011;61320;52.008;4.530;2023-01-08T14:55:21;2.62;;;2.31;;
73132;SDS011;61320;52.008;4.530;2023-01-08T14:57:51;3.17;;;2.74;;
73132;SDS011;61320;52.008;4.530;2023-01-08T15:00:24;3.33;;;2.78;;
73132;SDS011;61320;52.008;4.530;2023-01-08T15:02:53;3.88;;;3.19;;
73132;SDS011;61320;52.008;4.530;2023-01-08T15:05:26;3.22;;;2.58;;
73132;SDS011;61320;52.008;4.530;2023-01-08T15:13:51;4.02;;;3.01;;
73132;SDS011;61320;52.008;4.530;2023-01-08T15:21:28;3.95;;;2.96;;
73132;SDS011;61320;52.008;4.530;2023-01-08T15:23:54;4.25;;;3.15;;
73132;SDS011;61320;52.008;4.530;2023-01-08T15:26:22;3.74;;;2.82;;
73132;SDS011;61320;52.008;4.530;2023-01-08T15:31:22;3.82;;;2.80;;
73132;SDS011;61320;52.008;4.530;2023-01-08T15:34:08;3.51;;;2.60;;
73132;SDS011;61320;52.008;4.530;2023-01-08T15:36:33;3.77;;;2.82;;
73132;SDS011;61320;52.008;4.530;2023-01-08T15:38:59;4.00;;;2.96;;
73132;SDS011;61320;52.008;4.530;2023-01-08T15:41:25;4.08;;;2.99;;
73132;SDS011;61320;52.008;4.530;2023-01-08T15:44:09;4.36;;;3.17;;
73132;SDS011;61320;52.008;4.530;2023-01-08T15:46:39;3.78;;;2.81;;
73132;SDS011;61320;52.008;4.530;2023-01-08T15:49:04;3.81;;;2.85;;
73132;SDS011;61320;52.008;4.530;2023-01-08T15:51:30;3.30;;;2.50;;
73132;SDS011;61320;52.008;4.530;2023-01-08T15:53:59;4.07;;;3.03;;
73132;SDS011;61320;52.008;4.530;2023-01-08T15:56:26;3.55;;;2.68;;
73132;SDS011;61320;52.008;4.530;2023-01-08T15:58:51;3.63;;;2.80;;
73132;SDS011;61320;52.008;4.530;2023-01-08T16:01:17;3.84;;;3.03;;
73132;SDS011;61320;52.008;4.530;2023-01-08T16:03:43;3.59;;;2.84;;
73132;SDS011;61320;52.008;4.530;2023-01-08T16:06:09;3.58;;;2.83;;
73132;SDS011;61320;52.008;4.530;2023-01-08T16:08:35;4.04;;;3.23;;
73132;SDS011;61320;52.008;4.530;2023-01-08T16:11:00;3.61;;;2.96;;
73132;SDS011;61320;52.008;4.530;2023-01-08T16:13:26;3.93;;;3.32;;
73132;SDS011;61320;52.008;4.530;2023-01-08T16:15:51;3.78;;;3.17;;
73132;SDS011;61320;52.008;4.530;2023-01-08T16:18:17;3.78;;;3.19;;
73132;SDS011;61320;52.008;4.530;2023-01-08T16:20:42;4.56;;;3.89;;
73132;SDS011;61320;52.008;4.530;2023-01-08T16:23:07;3.93;;;3.36;;
73132;SDS011;61320;52.008;4.530;2023-01-08T16:25:33;3.89;;;3.33;;
73132;SDS011;61320;52.008;4.530;2023-01-08T16:28:00;3.68;;;3.13;;
73132;SDS011;61320;52.008;4.530;2023-01-08T16:30:26;3.44;;;2.84;;
73132;SDS011;61320;52.008;4.530;2023-01-08T16:32:52;3.66;;;2.95;;
73132;SDS011;61320;52.008;4.530;2023-01-08T16:35:18;3.84;;;3.19;;
73132;SDS011;61320;52.008;4.530;2023-01-08T16:37:45;4.96;;;4.41;;
73132;SDS011;61320;52.008;4.530;2023-01-08T16:40:11;3.31;;;2.89;;
73132;SDS011;61320;52.008;4.530;2023-01-08T16:42:37;3.29;;;2.77;;
73132;SDS011;61320;52.008;4.530;2023-01-08T16:45:03;3.68;;;3.01;;
73132;SDS011;61320;52.008;4.530;2023-01-08T16:47:29;3.51;;;2.86;;